sensor_id;sensor_type;location;lat;lon;timestamp;temperature;humidity
7214;DHT22;3648;50.614;13.830;2024-02-26T00:01:19;2.70;1.00
7214;DHT22;3648;50.614;13.830;2024-02-26T00:03:48;2.70;1.00
7214;DHT22;3648;50.614;13.830;2024-02-26T00:06:14;2.80;1.00
7214;DHT22;3648;50.614;13.830;2024-02-26T00:08:41;2.80;1.00
7214;DHT22;3648;50.614;13.830;2024-02-26T00:11:17;2.80;1.00
7214;DHT22;3648;50.614;13.830;2024-02-26T00:13:45;2.80;1.00
7214;DHT22;3648;50.614;13.830;2024-02-26T00:16:13;2.80;1.00
7214;DHT22;3648;50.614;13.830;2024-02-26T00:18:40;2.90;1.00
7214;DHT22;3648;50.614;13.830;2024-02-26T00:21:08;2.90;1.00
7214;DHT22;3648;50.614;13.830;2024-02-26T00:23:36;2.90;1.00
7214;DHT22;3648;50.614;13.830;2024-02-26T00:26:03;2.90;1.00
7214;DHT22;3648;50.614;13.830;2024-02-26T00:28:30;2.90;1.00
7214;DHT22;3648;50.614;13.830;2024-02-26T00:30:57;3.00;1.00
7214;DHT22;3648;50.614;13.830;2024-02-26T00:33:24;3.00;1.00
7214;DHT22;3648;50.614;13.830;2024-02-26T00:35:50;3.00;1.00
7214;DHT22;3648;50.614;13.830;2024-02-26T00:38:19;2.90;1.00
7214;DHT22;3648;50.614;13.830;2024-02-26T00:40:46;2.90;1.00
7214;DHT22;3648;50.614;13.830;2024-02-26T00:43:13;2.90;1.00
7214;DHT22;3648;50.614;13.830;2024-02-26T00:45:40;2.80;1.00
7214;DHT22;3648;50.614;13.830;2024-02-26T00:48:07;2.80;1.00
7214;DHT22;3648;50.614;13.830;2024-02-26T00:50:34;2.80;1.00
7214;DHT22;3648;50.614;13.830;2024-02-26T00:53:01;2.70;1.00
7214;DHT22;3648;50.614;13.830;2024-02-26T00:55:30;2.70;1.00
7214;DHT22;3648;50.614;13.830;2024-02-26T00:57:57;2.70;1.00
7214;DHT22;3648;50.614;13.830;2024-02-26T01:00:24;2.70;1.00
7214;DHT22;3648;50.614;13.830;2024-02-26T01:02:51;2.70;1.00
7214;DHT22;3648;50.614;13.830;2024-02-26T01:05:18;2.70;1.00
7214;DHT22;3648;50.614;13.830;2024-02-26T01:07:45;2.70;1.00
7214;DHT22;3648;50.614;13.830;2024-02-26T01:10:12;2.70;1.00
7214;DHT22;3648;50.614;13.830;2024-02-26T01:12:40;2.70;1.00
7214;DHT22;3648;50.614;13.830;2024-02-26T01:15:07;2.60;1.00
7214;DHT22;3648;50.614;13.830;2024-02-26T01:17:34;2.60;1.00
7214;DHT22;3648;50.614;13.830;2024-02-26T01:20:02;2.60;1.00
7214;DHT22;3648;50.614;13.830;2024-02-26T01:22:29;2.60;1.00
7214;DHT22;3648;50.614;13.830;2024-02-26T01:24:55;2.60;1.00
7214;DHT22;3648;50.614;13.830;2024-02-26T01:27:22;2.70;1.00
7214;DHT22;3648;50.614;13.830;2024-02-26T01:29:53;2.70;1.00
7214;DHT22;3648;50.614;13.830;2024-02-26T01:32:20;2.70;1.00
7214;DHT22;3648;50.614;13.830;2024-02-26T01:34:47;2.70;1.00
7214;DHT22;3648;50.614;13.830;2024-02-26T01:37:14;2.70;1.00
7214;DHT22;3648;50.614;13.830;2024-02-26T01:39:41;2.70;1.00
7214;DHT22;3648;50.614;13.830;2024-02-26T01:42:08;2.60;1.00
7214;DHT22;3648;50.614;13.830;2024-02-26T01:44:35;2.60;1.00
7214;DHT22;3648;50.614;13.830;2024-02-26T01:47:05;2.60;1.00
7214;DHT22;3648;50.614;13.830;2024-02-26T01:49:34;2.60;1.00
7214;DHT22;3648;50.614;13.830;2024-02-26T01:52:03;2.60;1.00
7214;DHT22;3648;50.614;13.830;2024-02-26T01:54:31;2.50;1.00
7214;DHT22;3648;50.614;13.830;2024-02-26T01:56:59;2.30;1.00
7214;DHT22;3648;50.614;13.830;2024-02-26T01:59:26;2.20;1.00
7214;DHT22;3648;50.614;13.830;2024-02-26T02:01:57;2.20;1.00
7214;DHT22;3648;50.614;13.830;2024-02-26T02:04:27;2.10;1.00
7214;DHT22;3648;50.614;13.830;2024-02-26T02:06:54;2.00;1.00
7214;DHT22;3648;50.614;13.830;2024-02-26T02:09:22;2.00;1.00
7214;DHT22;3648;50.614;13.830;2024-02-26T02:11:49;2.10;1.00
7214;DHT22;3648;50.614;13.830;2024-02-26T02:14:16;2.00;1.00
7214;DHT22;3648;50.614;13.830;2024-02-26T02:16:43;2.00;1.00
7214;DHT22;3648;50.614;13.830;2024-02-26T02:19:10;1.80;1.00
7214;DHT22;3648;50.614;13.830;2024-02-26T02:21:38;1.40;1.00
7214;DHT22;3648;50.614;13.830;2024-02-26T02:24:05;1.00;1.00
7214;DHT22;3648;50.614;13.830;2024-02-26T02:26:32;0.80;1.00
7214;DHT22;3648;50.614;13.830;2024-02-26T02:29:00;0.70;1.00
7214;DHT22;3648;50.614;13.830;2024-02-26T02:31:27;0.70;1.00
7214;DHT22;3648;50.614;13.830;2024-02-26T02:33:54;0.80;1.00
7214;DHT22;3648;50.614;13.830;2024-02-26T02:36:21;1.00;1.00
7214;DHT22;3648;50.614;13.830;2024-02-26T02:38:50;1.10;1.00
7214;DHT22;3648;50.614;13.830;2024-02-26T02:41:18;1.20;1.00
7214;DHT22;3648;50.614;13.830;2024-02-26T02:43:45;1.30;1.00
7214;DHT22;3648;50.614;13.830;2024-02-26T02:46:12;1.40;1.00
7214;DHT22;3648;50.614;13.830;2024-02-26T02:48:39;1.40;1.00
7214;DHT22;3648;50.614;13.830;2024-02-26T02:51:06;1.50;1.00
7214;DHT22;3648;50.614;13.830;2024-02-26T02:53:33;1.50;1.00
7214;DHT22;3648;50.614;13.830;2024-02-26T02:56:01;1.40;1.00
7214;DHT22;3648;50.614;13.830;2024-02-26T02:58:28;1.40;1.00
7214;DHT22;3648;50.614;13.830;2024-02-26T03:00:55;1.40;1.00
7214;DHT22;3648;50.614;13.830;2024-02-26T03:03:22;1.40;1.00
7214;DHT22;3648;50.614;13.830;2024-02-26T03:05:50;1.40;1.00
7214;DHT22;3648;50.614;13.830;2024-02-26T03:08:17;1.50;1.00
7214;DHT22;3648;50.614;13.830;2024-02-26T03:10:44;1.40;1.00
7214;DHT22;3648;50.614;13.830;2024-02-26T03:13:13;1.40;1.00
7214;DHT22;3648;50.614;13.830;2024-02-26T03:15:40;1.40;1.00
7214;DHT22;3648;50.614;13.830;2024-02-26T03:18:07;1.40;1.00
7214;DHT22;3648;50.614;13.830;2024-02-26T03:20:34;1.50;1.00
7214;DHT22;3648;50.614;13.830;2024-02-26T03:23:02;1.50;1.00
7214;DHT22;3648;50.614;13.830;2024-02-26T03:25:29;1.50;1.00
7214;DHT22;3648;50.614;13.830;2024-02-26T03:27:56;1.50;1.00
7214;DHT22;3648;50.614;13.830;2024-02-26T03:30:25;1.40;1.00
7214;DHT22;3648;50.614;13.830;2024-02-26T03:32:51;1.50;1.00
7214;DHT22;3648;50.614;13.830;2024-02-26T03:35:18;1.50;1.00
7214;DHT22;3648;50.614;13.830;2024-02-26T03:37:46;1.50;1.00
7214;DHT22;3648;50.614;13.830;2024-02-26T03:40:13;1.50;1.00
7214;DHT22;3648;50.614;13.830;2024-02-26T03:42:40;1.60;1.00
7214;DHT22;3648;50.614;13.830;2024-02-26T03:45:08;1.60;1.00
7214;DHT22;3648;50.614;13.830;2024-02-26T03:47:37;1.30;1.00
7214;DHT22;3648;50.614;13.830;2024-02-26T03:50:06;1.10;1.00
7214;DHT22;3648;50.614;13.830;2024-02-26T03:52:33;1.00;1.00
7214;DHT22;3648;50.614;13.830;2024-02-26T03:55:00;0.90;1.00
7214;DHT22;3648;50.614;13.830;2024-02-26T03:57:27;0.90;1.00
7214;DHT22;3648;50.614;13.830;2024-02-26T03:59:54;1.00;1.00
7214;DHT22;3648;50.614;13.830;2024-02-26T04:02:21;1.00;1.00
7214;DHT22;3648;50.614;13.830;2024-02-26T04:04:50;1.10;1.00
7214;DHT22;3648;50.614;13.830;2024-02-26T04:07:17;1.10;1.00
7214;DHT22;3648;50.614;13.830;2024-02-26T04:09:44;1.10;1.00
7214;DHT22;3648;50.614;13.830;2024-02-26T04:12:11;1.00;1.00
7214;DHT22;3648;50.614;13.830;2024-02-26T04:14:38;0.90;1.00
7214;DHT22;3648;50.614;13.830;2024-02-26T04:17:05;0.80;1.00
7214;DHT22;3648;50.614;13.830;2024-02-26T04:19:32;0.80;1.00
7214;DHT22;3648;50.614;13.830;2024-02-26T04:22:01;0.80;1.00
7214;DHT22;3648;50.614;13.830;2024-02-26T04:24:28;1.00;1.00
7214;DHT22;3648;50.614;13.830;2024-02-26T04:26:54;1.00;1.00
7214;DHT22;3648;50.614;13.830;2024-02-26T04:29:21;1.00;1.00
7214;DHT22;3648;50.614;13.830;2024-02-26T04:31:48;1.00;1.00
7214;DHT22;3648;50.614;13.830;2024-02-26T04:34:15;1.00;1.00
7214;DHT22;3648;50.614;13.830;2024-02-26T04:36:42;0.30;1.00
7214;DHT22;3648;50.614;13.830;2024-02-26T04:39:10;-0.10;1.00
7214;DHT22;3648;50.614;13.830;2024-02-26T04:41:37;-0.40;1.00
7214;DHT22;3648;50.614;13.830;2024-02-26T04:44:05;-0.60;1.00
7214;DHT22;3648;50.614;13.830;2024-02-26T04:46:34;-0.90;1.00
7214;DHT22;3648;50.614;13.830;2024-02-26T04:49:04;-1.10;1.00
7214;DHT22;3648;50.614;13.830;2024-02-26T04:51:41;-1.10;1.00
7214;DHT22;3648;50.614;13.830;2024-02-26T04:54:12;-1.30;1.00
7214;DHT22;3648;50.614;13.830;2024-02-26T04:56:41;-1.40;1.00
7214;DHT22;3648;50.614;13.830;2024-02-26T04:59:09;-1.30;1.00
7214;DHT22;3648;50.614;13.830;2024-02-26T05:01:36;-1.20;1.00
7214;DHT22;3648;50.614;13.830;2024-02-26T05:04:05;-1.20;1.00
7214;DHT22;3648;50.614;13.830;2024-02-26T05:06:32;-1.00;1.00
7214;DHT22;3648;50.614;13.830;2024-02-26T05:08:59;-0.80;1.00
7214;DHT22;3648;50.614;13.830;2024-02-26T05:11:27;-0.70;1.00
7214;DHT22;3648;50.614;13.830;2024-02-26T05:13:54;-0.70;1.00
7214;DHT22;3648;50.614;13.830;2024-02-26T05:16:21;-0.70;1.00
7214;DHT22;3648;50.614;13.830;2024-02-26T05:18:50;-0.70;1.00
7214;DHT22;3648;50.614;13.830;2024-02-26T05:21:17;-0.70;1.00
7214;DHT22;3648;50.614;13.830;2024-02-26T05:23:44;-0.90;1.00
7214;DHT22;3648;50.614;13.830;2024-02-26T05:26:11;-0.90;1.00
7214;DHT22;3648;50.614;13.830;2024-02-26T05:28:39;-0.60;1.00
7214;DHT22;3648;50.614;13.830;2024-02-26T05:31:06;-0.60;1.00
7214;DHT22;3648;50.614;13.830;2024-02-26T05:33:33;-0.50;1.00
7214;DHT22;3648;50.614;13.830;2024-02-26T05:36:00;-0.50;1.00
7214;DHT22;3648;50.614;13.830;2024-02-26T05:38:29;-0.40;1.00
7214;DHT22;3648;50.614;13.830;2024-02-26T05:40:57;-0.40;1.00
7214;DHT22;3648;50.614;13.830;2024-02-26T05:43:24;-0.40;1.00
7214;DHT22;3648;50.614;13.830;2024-02-26T05:45:53;-0.30;1.00
7214;DHT22;3648;50.614;13.830;2024-02-26T05:48:21;-0.30;1.00
7214;DHT22;3648;50.614;13.830;2024-02-26T05:50:48;-0.40;1.00
7214;DHT22;3648;50.614;13.830;2024-02-26T05:53:15;-0.50;1.00
7214;DHT22;3648;50.614;13.830;2024-02-26T05:55:45;-0.50;1.00
7214;DHT22;3648;50.614;13.830;2024-02-26T05:58:12;-0.40;1.00
7214;DHT22;3648;50.614;13.830;2024-02-26T06:00:39;-0.30;1.00
7214;DHT22;3648;50.614;13.830;2024-02-26T06:03:08;-0.30;1.00
7214;DHT22;3648;50.614;13.830;2024-02-26T06:05:34;-0.20;1.00
7214;DHT22;3648;50.614;13.830;2024-02-26T06:08:01;-0.10;1.00
7214;DHT22;3648;50.614;13.830;2024-02-26T06:10:29;-0.10;1.00
7214;DHT22;3648;50.614;13.830;2024-02-26T06:12:56;0.00;1.00
7214;DHT22;3648;50.614;13.830;2024-02-26T06:15:23;0.10;1.00
7214;DHT22;3648;50.614;13.830;2024-02-26T06:17:50;0.20;1.00
7214;DHT22;3648;50.614;13.830;2024-02-26T06:20:18;0.30;1.00
7214;DHT22;3648;50.614;13.830;2024-02-26T06:22:45;0.30;1.00
7214;DHT22;3648;50.614;13.830;2024-02-26T06:25:12;0.40;1.00
7214;DHT22;3648;50.614;13.830;2024-02-26T06:27:39;0.50;1.00
7214;DHT22;3648;50.614;13.830;2024-02-26T06:30:07;0.40;1.00
7214;DHT22;3648;50.614;13.830;2024-02-26T06:32:36;0.40;1.00
7214;DHT22;3648;50.614;13.830;2024-02-26T06:35:04;0.50;1.00
7214;DHT22;3648;50.614;13.830;2024-02-26T06:37:33;0.70;1.00
7214;DHT22;3648;50.614;13.830;2024-02-26T06:40:00;0.80;1.00
7214;DHT22;3648;50.614;13.830;2024-02-26T06:42:29;0.80;1.00
7214;DHT22;3648;50.614;13.830;2024-02-26T06:44:56;0.80;1.00
7214;DHT22;3648;50.614;13.830;2024-02-26T06:47:24;1.00;1.00
7214;DHT22;3648;50.614;13.830;2024-02-26T06:49:53;1.00;1.00
7214;DHT22;3648;50.614;13.830;2024-02-26T06:52:23;1.10;1.00
7214;DHT22;3648;50.614;13.830;2024-02-26T06:54:52;1.20;1.00
7214;DHT22;3648;50.614;13.830;2024-02-26T06:57:19;1.30;1.00
7214;DHT22;3648;50.614;13.830;2024-02-26T06:59:46;1.40;1.00
7214;DHT22;3648;50.614;13.830;2024-02-26T07:02:16;1.40;1.00
7214;DHT22;3648;50.614;13.830;2024-02-26T07:04:43;1.30;1.00
7214;DHT22;3648;50.614;13.830;2024-02-26T07:07:13;1.30;1.00
7214;DHT22;3648;50.614;13.830;2024-02-26T07:09:42;1.30;1.00
7214;DHT22;3648;50.614;13.830;2024-02-26T07:12:10;1.30;1.00
7214;DHT22;3648;50.614;13.830;2024-02-26T07:14:40;1.20;1.00
7214;DHT22;3648;50.614;13.830;2024-02-26T07:17:07;1.20;1.00
7214;DHT22;3648;50.614;13.830;2024-02-26T07:19:34;1.30;1.00
7214;DHT22;3648;50.614;13.830;2024-02-26T07:22:01;1.40;1.00
7214;DHT22;3648;50.614;13.830;2024-02-26T07:24:28;1.60;1.00
7214;DHT22;3648;50.614;13.830;2024-02-26T07:26:58;1.60;1.00
7214;DHT22;3648;50.614;13.830;2024-02-26T07:29:26;1.70;1.00
7214;DHT22;3648;50.614;13.830;2024-02-26T07:31:53;1.80;1.00
7214;DHT22;3648;50.614;13.830;2024-02-26T07:34:23;1.90;1.00
7214;DHT22;3648;50.614;13.830;2024-02-26T07:36:54;2.00;1.00
7214;DHT22;3648;50.614;13.830;2024-02-26T07:39:21;2.10;1.00
7214;DHT22;3648;50.614;13.830;2024-02-26T07:41:56;2.20;1.00
7214;DHT22;3648;50.614;13.830;2024-02-26T07:44:28;2.20;1.00
7214;DHT22;3648;50.614;13.830;2024-02-26T07:47:01;2.30;1.00
7214;DHT22;3648;50.614;13.830;2024-02-26T07:49:45;2.30;1.00
7214;DHT22;3648;50.614;13.830;2024-02-26T07:52:12;2.40;1.00
7214;DHT22;3648;50.614;13.830;2024-02-26T07:54:40;2.50;1.00
7214;DHT22;3648;50.614;13.830;2024-02-26T07:57:07;2.60;1.00
7214;DHT22;3648;50.614;13.830;2024-02-26T07:59:35;2.60;1.00
7214;DHT22;3648;50.614;13.830;2024-02-26T08:02:02;2.70;1.00
7214;DHT22;3648;50.614;13.830;2024-02-26T08:04:31;2.80;1.00
7214;DHT22;3648;50.614;13.830;2024-02-26T08:06:58;2.80;1.00
7214;DHT22;3648;50.614;13.830;2024-02-26T08:09:25;2.90;1.00
7214;DHT22;3648;50.614;13.830;2024-02-26T08:11:51;3.00;1.00
7214;DHT22;3648;50.614;13.830;2024-02-26T08:14:18;3.10;1.00
7214;DHT22;3648;50.614;13.830;2024-02-26T08:16:47;3.10;1.00
7214;DHT22;3648;50.614;13.830;2024-02-26T08:19:14;3.20;1.00
7214;DHT22;3648;50.614;13.830;2024-02-26T08:21:41;3.30;1.00
7214;DHT22;3648;50.614;13.830;2024-02-26T08:24:08;3.40;1.00
7214;DHT22;3648;50.614;13.830;2024-02-26T08:26:35;3.50;1.00
7214;DHT22;3648;50.614;13.830;2024-02-26T08:29:02;3.50;1.00
7214;DHT22;3648;50.614;13.830;2024-02-26T08:31:29;3.60;1.00
7214;DHT22;3648;50.614;13.830;2024-02-26T08:33:57;3.70;1.00
7214;DHT22;3648;50.614;13.830;2024-02-26T08:36:26;3.80;1.00
7214;DHT22;3648;50.614;13.830;2024-02-26T08:38:53;3.90;1.00
7214;DHT22;3648;50.614;13.830;2024-02-26T08:41:20;3.90;1.00
7214;DHT22;3648;50.614;13.830;2024-02-26T08:43:47;4.00;1.00
7214;DHT22;3648;50.614;13.830;2024-02-26T08:46:14;4.10;1.00
7214;DHT22;3648;50.614;13.830;2024-02-26T08:48:40;4.10;1.00
7214;DHT22;3648;50.614;13.830;2024-02-26T08:51:09;4.20;1.00
7214;DHT22;3648;50.614;13.830;2024-02-26T08:53:36;4.30;1.00
7214;DHT22;3648;50.614;13.830;2024-02-26T08:56:04;4.30;1.00
7214;DHT22;3648;50.614;13.830;2024-02-26T08:58:31;4.40;1.00
7214;DHT22;3648;50.614;13.830;2024-02-26T09:00:58;4.50;1.00
7214;DHT22;3648;50.614;13.830;2024-02-26T09:03:25;4.50;1.00
7214;DHT22;3648;50.614;13.830;2024-02-26T09:05:52;4.60;1.00
7214;DHT22;3648;50.614;13.830;2024-02-26T09:08:21;4.60;1.00
7214;DHT22;3648;50.614;13.830;2024-02-26T09:10:49;4.70;1.00
7214;DHT22;3648;50.614;13.830;2024-02-26T09:13:16;4.80;1.00
7214;DHT22;3648;50.614;13.830;2024-02-26T09:15:44;4.80;1.00
7214;DHT22;3648;50.614;13.830;2024-02-26T09:18:11;4.80;1.00
7214;DHT22;3648;50.614;13.830;2024-02-26T09:20:38;4.80;1.00
7214;DHT22;3648;50.614;13.830;2024-02-26T09:23:05;4.70;1.00
7214;DHT22;3648;50.614;13.830;2024-02-26T09:25:33;4.80;1.00
7214;DHT22;3648;50.614;13.830;2024-02-26T09:28:01;4.90;1.00
7214;DHT22;3648;50.614;13.830;2024-02-26T09:30:29;5.00;1.00
7214;DHT22;3648;50.614;13.830;2024-02-26T09:32:56;5.00;1.00
7214;DHT22;3648;50.614;13.830;2024-02-26T09:35:22;5.00;1.00
7214;DHT22;3648;50.614;13.830;2024-02-26T09:37:49;5.00;1.00
7214;DHT22;3648;50.614;13.830;2024-02-26T09:40:16;5.00;1.00
7214;DHT22;3648;50.614;13.830;2024-02-26T09:42:45;4.90;1.00
7214;DHT22;3648;50.614;13.830;2024-02-26T09:45:17;4.70;1.00
7214;DHT22;3648;50.614;13.830;2024-02-26T09:47:45;4.60;1.00
7214;DHT22;3648;50.614;13.830;2024-02-26T09:50:14;4.60;1.00
7214;DHT22;3648;50.614;13.830;2024-02-26T09:52:45;4.70;1.00
7214;DHT22;3648;50.614;13.830;2024-02-26T09:55:12;4.80;1.00
7214;DHT22;3648;50.614;13.830;2024-02-26T09:57:42;4.90;1.00
7214;DHT22;3648;50.614;13.830;2024-02-26T10:00:17;5.00;1.00
7214;DHT22;3648;50.614;13.830;2024-02-26T10:02:45;5.00;1.00
7214;DHT22;3648;50.614;13.830;2024-02-26T10:05:14;5.00;1.00
7214;DHT22;3648;50.614;13.830;2024-02-26T10:07:44;5.10;1.00
7214;DHT22;3648;50.614;13.830;2024-02-26T10:10:11;5.20;1.00
7214;DHT22;3648;50.614;13.830;2024-02-26T10:12:38;5.30;1.00
7214;DHT22;3648;50.614;13.830;2024-02-26T10:15:06;5.30;1.00
7214;DHT22;3648;50.614;13.830;2024-02-26T10:17:34;5.30;1.00
7214;DHT22;3648;50.614;13.830;2024-02-26T10:20:13;5.40;1.00
7214;DHT22;3648;50.614;13.830;2024-02-26T10:22:41;5.40;1.00
7214;DHT22;3648;50.614;13.830;2024-02-26T10:25:09;5.40;1.00
7214;DHT22;3648;50.614;13.830;2024-02-26T10:27:36;5.40;1.00
7214;DHT22;3648;50.614;13.830;2024-02-26T10:30:03;5.50;1.00
7214;DHT22;3648;50.614;13.830;2024-02-26T10:32:31;5.50;1.00
7214;DHT22;3648;50.614;13.830;2024-02-26T10:35:00;5.60;1.00
7214;DHT22;3648;50.614;13.830;2024-02-26T10:37:27;5.60;1.00
7214;DHT22;3648;50.614;13.830;2024-02-26T10:39:54;5.60;1.00
7214;DHT22;3648;50.614;13.830;2024-02-26T10:42:21;5.60;1.00
7214;DHT22;3648;50.614;13.830;2024-02-26T10:44:48;5.70;1.00
7214;DHT22;3648;50.614;13.830;2024-02-26T10:47:15;5.70;1.00
7214;DHT22;3648;50.614;13.830;2024-02-26T10:49:46;5.70;1.00
7214;DHT22;3648;50.614;13.830;2024-02-26T10:52:15;5.70;1.00
7214;DHT22;3648;50.614;13.830;2024-02-26T10:54:42;5.70;1.00
7214;DHT22;3648;50.614;13.830;2024-02-26T10:57:12;5.80;1.00
7214;DHT22;3648;50.614;13.830;2024-02-26T10:59:40;5.90;1.00
7214;DHT22;3648;50.614;13.830;2024-02-26T11:02:09;6.00;1.00
7214;DHT22;3648;50.614;13.830;2024-02-26T11:04:38;6.00;1.00
7214;DHT22;3648;50.614;13.830;2024-02-26T11:07:05;6.10;1.00
7214;DHT22;3648;50.614;13.830;2024-02-26T11:09:36;6.20;1.00
7214;DHT22;3648;50.614;13.830;2024-02-26T11:12:08;6.30;1.00
7214;DHT22;3648;50.614;13.830;2024-02-26T11:14:39;6.40;1.00
7214;DHT22;3648;50.614;13.830;2024-02-26T11:17:07;6.40;1.00
7214;DHT22;3648;50.614;13.830;2024-02-26T11:19:36;6.40;1.00
7214;DHT22;3648;50.614;13.830;2024-02-26T11:22:04;6.40;1.00
7214;DHT22;3648;50.614;13.830;2024-02-26T11:24:32;6.40;1.00
7214;DHT22;3648;50.614;13.830;2024-02-26T11:27:02;6.50;1.00
7214;DHT22;3648;50.614;13.830;2024-02-26T11:29:35;6.50;1.00
7214;DHT22;3648;50.614;13.830;2024-02-26T11:32:05;6.50;1.00
7214;DHT22;3648;50.614;13.830;2024-02-26T11:34:32;6.40;1.00
7214;DHT22;3648;50.614;13.830;2024-02-26T11:37:09;6.40;1.00
7214;DHT22;3648;50.614;13.830;2024-02-26T11:39:37;6.50;1.00
7214;DHT22;3648;50.614;13.830;2024-02-26T11:42:09;6.60;1.00
7214;DHT22;3648;50.614;13.830;2024-02-26T11:44:36;6.60;1.00
7214;DHT22;3648;50.614;13.830;2024-02-26T11:47:10;6.60;1.00
7214;DHT22;3648;50.614;13.830;2024-02-26T11:49:37;6.70;1.00
7214;DHT22;3648;50.614;13.830;2024-02-26T11:52:06;6.70;1.00
7214;DHT22;3648;50.614;13.830;2024-02-26T11:54:55;6.80;1.00
7214;DHT22;3648;50.614;13.830;2024-02-26T11:57:26;6.90;1.00
7214;DHT22;3648;50.614;13.830;2024-02-26T11:59:54;6.90;1.00
7214;DHT22;3648;50.614;13.830;2024-02-26T12:02:55;7.00;1.00
7214;DHT22;3648;50.614;13.830;2024-02-26T12:05:27;7.00;1.00
7214;DHT22;3648;50.614;13.830;2024-02-26T12:08:02;7.10;1.00
7214;DHT22;3648;50.614;13.830;2024-02-26T12:10:31;7.20;1.00
7214;DHT22;3648;50.614;13.830;2024-02-26T12:13:05;7.30;1.00
7214;DHT22;3648;50.614;13.830;2024-02-26T12:15:36;7.40;1.00
7214;DHT22;3648;50.614;13.830;2024-02-26T12:18:05;7.40;1.00
7214;DHT22;3648;50.614;13.830;2024-02-26T12:20:33;7.40;1.00
7214;DHT22;3648;50.614;13.830;2024-02-26T12:23:02;7.50;1.00
7214;DHT22;3648;50.614;13.830;2024-02-26T12:25:29;7.60;1.00
7214;DHT22;3648;50.614;13.830;2024-02-26T12:27:57;7.80;1.00
7214;DHT22;3648;50.614;13.830;2024-02-26T12:30:26;7.90;1.00
7214;DHT22;3648;50.614;13.830;2024-02-26T12:32:55;7.90;1.00
7214;DHT22;3648;50.614;13.830;2024-02-26T12:35:24;8.10;1.00
7214;DHT22;3648;50.614;13.830;2024-02-26T12:37:52;8.10;1.00
7214;DHT22;3648;50.614;13.830;2024-02-26T12:40:19;8.10;1.00
7214;DHT22;3648;50.614;13.830;2024-02-26T12:42:46;8.10;1.00
7214;DHT22;3648;50.614;13.830;2024-02-26T12:45:14;8.20;1.00
7214;DHT22;3648;50.614;13.830;2024-02-26T12:47:44;8.10;1.00
7214;DHT22;3648;50.614;13.830;2024-02-26T12:50:12;8.00;1.00
7214;DHT22;3648;50.614;13.830;2024-02-26T12:52:42;8.10;1.00
7214;DHT22;3648;50.614;13.830;2024-02-26T12:55:13;8.20;1.00
7214;DHT22;3648;50.614;13.830;2024-02-26T12:57:42;8.20;1.00
7214;DHT22;3648;50.614;13.830;2024-02-26T13:00:13;8.30;1.00
7214;DHT22;3648;50.614;13.830;2024-02-26T13:02:43;8.30;1.00
7214;DHT22;3648;50.614;13.830;2024-02-26T13:05:13;8.30;1.00
7214;DHT22;3648;50.614;13.830;2024-02-26T13:07:41;8.40;1.00
7214;DHT22;3648;50.614;13.830;2024-02-26T13:10:09;8.40;1.00
7214;DHT22;3648;50.614;13.830;2024-02-26T13:12:37;8.30;1.00
7214;DHT22;3648;50.614;13.830;2024-02-26T13:15:05;8.20;1.00
7214;DHT22;3648;50.614;13.830;2024-02-26T13:17:32;8.30;1.00
7214;DHT22;3648;50.614;13.830;2024-02-26T13:20:01;8.20;1.00
7214;DHT22;3648;50.614;13.830;2024-02-26T13:22:29;8.30;1.00
7214;DHT22;3648;50.614;13.830;2024-02-26T13:24:59;8.30;1.00
7214;DHT22;3648;50.614;13.830;2024-02-26T13:27:28;8.30;1.00
7214;DHT22;3648;50.614;13.830;2024-02-26T13:30:06;8.30;1.00
7214;DHT22;3648;50.614;13.830;2024-02-26T13:32:36;8.30;1.00
7214;DHT22;3648;50.614;13.830;2024-02-26T13:35:10;8.30;1.00
7214;DHT22;3648;50.614;13.830;2024-02-26T13:37:38;8.20;1.00
7214;DHT22;3648;50.614;13.830;2024-02-26T13:40:06;8.20;1.00
7214;DHT22;3648;50.614;13.830;2024-02-26T13:42:34;8.20;1.00
7214;DHT22;3648;50.614;13.830;2024-02-26T13:45:01;8.30;1.00
7214;DHT22;3648;50.614;13.830;2024-02-26T13:47:28;8.30;1.00
7214;DHT22;3648;50.614;13.830;2024-02-26T13:49:55;8.40;1.00
7214;DHT22;3648;50.614;13.830;2024-02-26T13:52:24;8.40;1.00
7214;DHT22;3648;50.614;13.830;2024-02-26T13:54:51;8.40;1.00
7214;DHT22;3648;50.614;13.830;2024-02-26T13:57:19;8.40;1.00
7214;DHT22;3648;50.614;13.830;2024-02-26T13:59:46;8.40;1.00
7214;DHT22;3648;50.614;13.830;2024-02-26T14:02:13;8.50;1.00
7214;DHT22;3648;50.614;13.830;2024-02-26T14:04:40;8.40;1.00
7214;DHT22;3648;50.614;13.830;2024-02-26T14:07:07;8.40;1.00
7214;DHT22;3648;50.614;13.830;2024-02-26T14:09:36;8.40;1.00
7214;DHT22;3648;50.614;13.830;2024-02-26T14:12:04;8.40;1.00
7214;DHT22;3648;50.614;13.830;2024-02-26T14:14:31;8.50;1.00
7214;DHT22;3648;50.614;13.830;2024-02-26T14:17:02;8.40;1.00
7214;DHT22;3648;50.614;13.830;2024-02-26T14:19:29;8.40;1.00
7214;DHT22;3648;50.614;13.830;2024-02-26T14:21:56;8.40;1.00
7214;DHT22;3648;50.614;13.830;2024-02-26T14:24:23;8.30;1.00
7214;DHT22;3648;50.614;13.830;2024-02-26T14:26:51;8.30;1.00
7214;DHT22;3648;50.614;13.830;2024-02-26T14:29:19;8.40;1.00
7214;DHT22;3648;50.614;13.830;2024-02-26T14:31:46;8.40;1.00
7214;DHT22;3648;50.614;13.830;2024-02-26T14:34:12;8.40;1.00
7214;DHT22;3648;50.614;13.830;2024-02-26T14:36:39;8.40;1.00
7214;DHT22;3648;50.614;13.830;2024-02-26T14:39:07;8.40;1.00
7214;DHT22;3648;50.614;13.830;2024-02-26T14:41:36;8.40;1.00
7214;DHT22;3648;50.614;13.830;2024-02-26T14:44:05;8.50;1.00
7214;DHT22;3648;50.614;13.830;2024-02-26T14:46:32;8.40;1.00
7214;DHT22;3648;50.614;13.830;2024-02-26T14:48:59;8.40;1.00
7214;DHT22;3648;50.614;13.830;2024-02-26T14:51:26;8.30;1.00
7214;DHT22;3648;50.614;13.830;2024-02-26T14:53:53;8.30;1.00
7214;DHT22;3648;50.614;13.830;2024-02-26T14:56:20;8.30;1.00
7214;DHT22;3648;50.614;13.830;2024-02-26T14:58:47;8.30;1.00
7214;DHT22;3648;50.614;13.830;2024-02-26T15:01:15;8.20;1.00
7214;DHT22;3648;50.614;13.830;2024-02-26T15:03:42;8.20;1.00
7214;DHT22;3648;50.614;13.830;2024-02-26T15:06:09;8.20;1.00
7214;DHT22;3648;50.614;13.830;2024-02-26T15:08:36;8.30;1.00
7214;DHT22;3648;50.614;13.830;2024-02-26T15:11:03;8.20;1.00
7214;DHT22;3648;50.614;13.830;2024-02-26T15:13:31;8.20;1.00
7214;DHT22;3648;50.614;13.830;2024-02-26T15:15:58;8.20;1.00
7214;DHT22;3648;50.614;13.830;2024-02-26T15:18:26;8.20;1.00
7214;DHT22;3648;50.614;13.830;2024-02-26T15:20:54;8.20;1.00
7214;DHT22;3648;50.614;13.830;2024-02-26T15:23:21;8.10;1.00
7214;DHT22;3648;50.614;13.830;2024-02-26T15:25:47;8.10;1.00
7214;DHT22;3648;50.614;13.830;2024-02-26T15:28:14;8.00;1.00
7214;DHT22;3648;50.614;13.830;2024-02-26T15:30:42;7.90;1.00
7214;DHT22;3648;50.614;13.830;2024-02-26T15:33:09;7.70;1.00
7214;DHT22;3648;50.614;13.830;2024-02-26T15:35:39;7.70;1.00
7214;DHT22;3648;50.614;13.830;2024-02-26T15:38:07;7.70;1.00
7214;DHT22;3648;50.614;13.830;2024-02-26T15:40:34;7.60;1.00
7214;DHT22;3648;50.614;13.830;2024-02-26T15:43:01;7.60;1.00
7214;DHT22;3648;50.614;13.830;2024-02-26T15:45:28;7.60;1.00
7214;DHT22;3648;50.614;13.830;2024-02-26T15:47:57;7.50;1.00
7214;DHT22;3648;50.614;13.830;2024-02-26T15:50:24;7.50;1.00
7214;DHT22;3648;50.614;13.830;2024-02-26T15:52:53;7.50;1.00
7214;DHT22;3648;50.614;13.830;2024-02-26T15:55:20;7.50;1.00
7214;DHT22;3648;50.614;13.830;2024-02-26T15:57:47;7.50;1.00
7214;DHT22;3648;50.614;13.830;2024-02-26T16:00:15;7.40;1.00
7214;DHT22;3648;50.614;13.830;2024-02-26T16:02:42;7.40;1.00
7214;DHT22;3648;50.614;13.830;2024-02-26T16:05:10;7.30;1.00
7214;DHT22;3648;50.614;13.830;2024-02-26T16:07:43;7.30;1.00
7214;DHT22;3648;50.614;13.830;2024-02-26T16:10:12;7.30;1.00
7214;DHT22;3648;50.614;13.830;2024-02-26T16:12:40;7.20;1.00
7214;DHT22;3648;50.614;13.830;2024-02-26T16:15:08;7.20;1.00
7214;DHT22;3648;50.614;13.830;2024-02-26T16:17:38;7.10;1.00
7214;DHT22;3648;50.614;13.830;2024-02-26T16:20:13;7.10;1.00
7214;DHT22;3648;50.614;13.830;2024-02-26T16:22:40;7.10;1.00